ニアメ の空港の天気 - METARとTAF

ニアメ/ディオリ・アマニ国際空港 ( DRRN / NIM ) - ニジェール ニアメ
飛行場実況気象(Metar)
観測時間10/20 17:00 WAT (10/20 16:00 UTC)
風向・風速南東 7m/s
視程10km以上
天気現象
全天の8割程度の雲 雲底高度 460m
少しの雲 雲底高度 610m
気温34℃
湿度39%
気圧1009hPa
METARDRRN 201600Z 14013KT 110V170 9999 BKN015 FEW020CB 34/18 Q1009 BECMG 08025G40KT 1000 BLDU TSRA
過去の天気等 Google飛行場航空写真 Wunderground天気予報

過去48時間のMETAR

飛行場予報(TAF)
発表時間: 10/20 12:00 WAT (10/20 11:00 UTC)
予報対象時間: 20日13時 WAT ~ 21日19時 WAT
風向・風速南南東 4m/s
視程10km以上
少しの雲 雲底高度 610m
20日17時 WAT から 確率 30% で
風向・風速南南東 8m/s 瞬間風速 15m/s
視程1500m
天気現象高い風塵 雷雨
全天の8割程度の雲 雲底高度 460m
少しの積乱雲 雲底高度 610m
TAF DRRN 201100Z 2012/2118 16008KT 9999 FEW020
PROB30 2016/2022 16015G30KT 1500 BLDU TSRA BKN015 FEW020CB